M I D A S
Marine Information and Data Acquisition System
Tripno 1609 of the Zeeleeuw from 2008-11-12 08:00:00 to 2008-11-12 17:00:00
Back to CruiseResearch ActivitiesStationsMapUnderway DataData graphs

EquipmentUnitsComment
TimeDGPSUTC
LatitudeDGPSDM.mWGS84
LongitudeDGPSDM.mWGS84
TemperatureSBE03/SBE38deg celciusITS90
ConductivitySBE21S/mITS90
SalinitySBE21 Practical Salinity Units
ChlorophylAChelsea fluorimeterg/lCalibrated in Aceton
Missing or incorrect values are displayed as -999
Sea surface data collected by the RV Zeeleeuw from 2008-11-12 08:00:00 to 2008-11-12 17:00:00
                                                                                    Next 1000 lines
Time Latitude Longitude Temperature Conductivity Salinity ChlorophylA
2008-11-12 08:00:20 51°13.624 2°56.048 -999 -999 -999 -999
2008-11-12 08:00:30 51°13.624 2°56.049 -999 -999 -999 -999
2008-11-12 08:00:40 51°13.624 2°56.048 -999 -999 -999 -999
2008-11-12 08:00:50 51°13.624 2°56.048 -999 -999 -999 -999
2008-11-12 08:01:00 51°13.624 2°56.048 -999 -999 -999 -999
2008-11-12 08:01:10 51°13.624 2°56.048 -999 -999 -999 -999
2008-11-12 08:01:20 51°13.624 2°56.048 -999 -999 -999 -999
2008-11-12 08:01:30 51°13.624 2°56.048 -999 -999 -999 -999
2008-11-12 08:01:40 51°13.624 2°56.048 -999 -999 -999 -999
2008-11-12 08:01:50 51°13.624 2°56.048 -999 -999 -999 -999
2008-11-12 08:02:00 51°13.624 2°56.048 -999 -999 -999 -999
2008-11-12 08:02:10 51°13.623 2°56.048 -999 -999 -999 -999
2008-11-12 08:02:20 51°13.623 2°56.048 -999 -999 -999 -999
2008-11-12 08:02:30 51°13.623 2°56.048 -999 -999 -999 -999
2008-11-12 08:02:40 51°13.623 2°56.048 -999 -999 -999 -999
2008-11-12 08:02:50 51°13.623 2°56.048 -999 -999 -999 -999
2008-11-12 08:03:00 51°13.624 2°56.048 -999 -999 -999 -999
2008-11-12 08:03:10 51°13.624 2°56.048 -999 -999 -999 -999
2008-11-12 08:03:20 51°13.624 2°56.048 -999 -999 -999 -999
2008-11-12 08:03:30 51°13.624 2°56.048 -999 -999 -999 -999
2008-11-12 08:03:40 51°13.624 2°56.048 -999 -999 -999 -999
2008-11-12 08:03:50 51°13.624 2°56.048 -999 -999 -999 -999
2008-11-12 08:04:00 51°13.624 2°56.048 -999 -999 -999 -999
2008-11-12 08:04:10 51°13.624 2°56.048 -999 -999 -999 -999
2008-11-12 08:04:14 51°13.624 2°56.048 -999 0.04797 0.257829 -1.000568
2008-11-12 08:04:19 51°13.624 2°56.048 -999 0.048073 0.258399 -0.965744
2008-11-12 08:04:20 51°13.624 2°56.048 -999 -999 -999 -999
2008-11-12 08:04:24 51°13.624 2°56.047 -999 0.047559 0.255572 -0.965744
2008-11-12 08:04:30 51°13.624 2°56.047 -999 -999 -999 -999
2008-11-12 08:04:40 51°13.624 2°56.047 -999 -999 -999 -999
2008-11-12 08:04:49 51°13.624 2°56.048 -999 0.047868 0.257281 -1.000568
2008-11-12 08:04:50 51°13.624 2°56.048 -999 -999 -999 -999
2008-11-12 08:04:54 51°13.624 2°56.048 -999 0.047662 0.256154 -1.000568
2008-11-12 08:05:00 51°13.624 2°56.048 -999 -999 -999 -999
2008-11-12 08:05:10 51°13.623 2°56.048 -999 -999 -999 -999
2008-11-12 08:05:20 51°13.624 2°56.047 -999 -999 -999 -999
2008-11-12 08:05:24 51°13.624 2°56.047 -999 0.047765 0.256733 -1.000568
2008-11-12 08:05:29 51°13.624 2°56.047 -999 0.047662 0.256168 -1.000568
2008-11-12 08:05:30 51°13.624 2°56.047 -999 -999 -999 -999
2008-11-12 08:05:34 51°13.624 2°56.047 -999 0.048176 0.259 -1.000568
2008-11-12 08:05:40 51°13.624 2°56.047 -999 -999 -999 -999
2008-11-12 08:05:50 51°13.624 2°56.047 -999 -999 -999 -999
2008-11-12 08:06:00 51°13.624 2°56.048 -999 -999 -999 -999
2008-11-12 08:06:10 51°13.624 2°56.048 -999 -999 -999 -999
2008-11-12 08:06:20 51°13.624 2°56.048 -999 -999 -999 -999
2008-11-12 08:06:29 51°13.624 2°56.048 -999 0.048382 0.260163 -0.965744
2008-11-12 08:06:30 51°13.624 2°56.048 -999 -999 -999 -999
2008-11-12 08:06:34 51°13.623 2°56.048 -999 0.048382 0.260163 -0.965744
2008-11-12 08:06:39 51°13.623 2°56.048 -999 0.048176 0.259036 -0.965744
2008-11-12 08:06:40 51°13.623 2°56.048 -999 -999 -999 -999
2008-11-12 08:06:50 51°13.623 2°56.048 -999 -999 -999 -999
2008-11-12 08:06:59 51°13.624 2°56.047 -999 0.048279 0.25961 -0.965744
2008-11-12 08:07:00 51°13.624 2°56.047 -999 -999 -999 -999
2008-11-12 08:07:10 51°13.624 2°56.047 -999 -999 -999 -999
2008-11-12 08:07:20 51°13.624 2°56.048 -999 -999 -999 -999
2008-11-12 08:07:29 51°13.623 2°56.048 -999 0.047868 0.257365 -1.000568
2008-11-12 08:07:30 51°13.623 2°56.048 -999 -999 -999 -999
2008-11-12 08:07:35 51°13.624 2°56.048 -999 0.047765 0.256799 -1.000568
2008-11-12 08:07:39 51°13.624 2°56.048 -999 0.048279 0.259633 -1.000568
2008-11-12 08:07:40 51°13.624 2°56.048 -999 -999 -999 -999
2008-11-12 08:07:44 51°13.624 2°56.048 -999 0.048279 0.259633 -1.000568
2008-11-12 08:07:49 51°13.624 2°56.048 -999 0.047765 0.256808 -0.965744
2008-11-12 08:07:50 51°13.624 2°56.048 -999 -999 -999 -999
2008-11-12 08:07:54 51°13.624 2°56.047 -999 0.048279 0.259642 -0.965744
2008-11-12 08:07:59 51°13.624 2°56.047 -999 0.047868 0.257378 -0.965744
2008-11-12 08:08:00 51°13.624 2°56.047 -999 -999 -999 -999
2008-11-12 08:08:10 51°13.624 2°56.047 -999 -999 -999 -999
2008-11-12 08:08:14 51°13.624 2°56.047 -999 0.048073 0.258519 -1.000568
2008-11-12 08:08:20 51°13.624 2°56.048 -999 -999 -999 -999
2008-11-12 08:08:24 51°13.624 2°56.048 -999 0.047765 0.256826 -1.000568
2008-11-12 08:08:30 51°13.624 2°56.048 -999 -999 -999 -999
2008-11-12 08:08:39 51°13.624 2°56.047 -999 0.048073 0.258532 -0.965744
2008-11-12 08:08:40 51°13.624 2°56.047 -999 -999 -999 -999
2008-11-12 08:08:50 51°13.624 2°56.047 -999 -999 -999 -999
2008-11-12 08:09:00 51°13.624 2°56.047 -999 -999 -999 -999
2008-11-12 08:09:10 51°13.624 2°56.047 -999 -999 -999 -999
2008-11-12 08:09:20 51°13.624 2°56.048 -999 -999 -999 -999
2008-11-12 08:09:30 51°13.624 2°56.048 -999 -999 -999 -999
2008-11-12 08:09:40 51°13.624 2°56.047 -999 -999 -999 -999
2008-11-12 08:09:50 51°13.624 2°56.047 -999 -999 -999 -999
2008-11-12 08:10:00 51°13.624 2°56.047 -999 -999 -999 -999
2008-11-12 08:10:10 51°13.624 2°56.047 -999 -999 -999 -999
2008-11-12 08:10:20 51°13.624 2°56.048 -999 -999 -999 -999
2008-11-12 08:10:30 51°13.624 2°56.048 -999 -999 -999 -999
2008-11-12 08:10:40 51°13.624 2°56.047 -999 -999 -999 -999
2008-11-12 08:10:50 51°13.624 2°56.047 -999 -999 -999 -999
2008-11-12 08:11:00 51°13.624 2°56.047 -999 -999 -999 -999
2008-11-12 08:11:10 51°13.624 2°56.047 -999 -999 -999 -999
2008-11-12 08:11:20 51°13.624 2°56.047 -999 -999 -999 -999
2008-11-12 08:11:30 51°13.624 2°56.047 -999 -999 -999 -999
2008-11-12 08:11:40 51°13.624 2°56.047 -999 -999 -999 -999
2008-11-12 08:11:50 51°13.624 2°56.047 -999 -999 -999 -999
2008-11-12 08:11:59 51°13.624 2°56.047 -999 0.048176 0.259214 -0.965744
2008-11-12 08:12:00 51°13.624 2°56.047 -999 -999 -999 -999
2008-11-12 08:12:09 51°13.625 2°56.047 -999 0.048485 0.260926 -1.000568
2008-11-12 08:12:10 51°13.625 2°56.047 -999 -999 -999 -999
2008-11-12 08:12:20 51°13.625 2°56.047 -999 -999 -999 -999
2008-11-12 08:12:30 51°13.625 2°56.047 -999 -999 -999 -999
2008-11-12 08:12:40 51°13.625 2°56.047 -999 -999 -999 -999
2008-11-12 08:12:50 51°13.625 2°56.047 -999 -999 -999 -999
2008-11-12 08:13:00 51°13.625 2°56.047 -999 -999 -999 -999
2008-11-12 08:13:10 51°13.625 2°56.047 -999 -999 -999 -999
2008-11-12 08:13:20 51°13.624 2°56.047 -999 -999 -999 -999
2008-11-12 08:13:30 51°13.624 2°56.047 -999 -999 -999 -999
2008-11-12 08:13:39 51°13.624 2°56.047 -999 0.047765 0.257016 -1.000568
2008-11-12 08:13:40 51°13.624 2°56.047 -999 -999 -999 -999
2008-11-12 08:13:44 51°13.624 2°56.047 -999 0.047765 0.257016 -1.000568
2008-11-12 08:13:49 51°13.624 2°56.048 -999 0.04797 0.258153 -0.965744
2008-11-12 08:13:50 51°13.624 2°56.048 -999 -999 -999 -999
2008-11-12 08:14:00 51°13.624 2°56.048 -999 -999 -999 -999
2008-11-12 08:14:04 51°13.624 2°56.048 -999 0.04797 0.258162 -1.000568
2008-11-12 08:14:09 51°13.624 2°56.048 -999 0.047559 0.255901 -1.000568
2008-11-12 08:14:10 51°13.624 2°56.048 -999 -999 -999 -999
2008-11-12 08:14:14 51°13.624 2°56.048 -999 0.047559 0.255901 -1.000568
2008-11-12 08:14:19 51°13.624 2°56.048 -999 0.048382 0.260436 -0.965744
2008-11-12 08:14:20 51°13.624 2°56.048 -999 -999 -999 -999
2008-11-12 08:14:30 51°13.624 2°56.048 -999 -999 -999 -999
2008-11-12 08:14:40 51°13.624 2°56.048 -999 -999 -999 -999
2008-11-12 08:14:50 51°13.624 2°56.048 -999 -999 -999 -999
2008-11-12 08:15:00 51°13.624 2°56.048 -999 -999 -999 -999
2008-11-12 08:15:10 51°13.624 2°56.048 -999 -999 -999 -999
2008-11-12 08:15:20 51°13.624 2°56.048 -999 -999 -999 -999
2008-11-12 08:15:30 51°13.624 2°56.048 -999 -999 -999 -999
2008-11-12 08:15:40 51°13.624 2°56.048 -999 -999 -999 -999
2008-11-12 08:15:50 51°13.624 2°56.048 -999 -999 -999 -999
2008-11-12 08:16:00 51°13.624 2°56.048 -999 -999 -999 -999
2008-11-12 08:16:09 51°13.624 2°56.048 -999 0.048073 0.258808 -1.000568
2008-11-12 08:16:10 51°13.624 2°56.048 -999 -999 -999 -999
2008-11-12 08:16:20 51°13.624 2°56.048 -999 -999 -999 -999
2008-11-12 08:16:30 51°13.624 2°56.048 -999 -999 -999 -999
2008-11-12 08:16:40 51°13.624 2°56.048 -999 -999 -999 -999
2008-11-12 08:16:50 51°13.624 2°56.048 -999 -999 -999 -999
2008-11-12 08:17:00 51°13.624 2°56.048 -999 -999 -999 -999
2008-11-12 08:17:10 51°13.624 2°56.048 -999 -999 -999 -999
2008-11-12 08:17:20 51°13.624 2°56.049 -999 -999 -999 -999
2008-11-12 08:17:30 51°13.624 2°56.048 -999 -999 -999 -999
2008-11-12 08:17:40 51°13.624 2°56.048 -999 -999 -999 -999
2008-11-12 08:17:50 51°13.624 2°56.048 -999 -999 -999 -999
2008-11-12 08:18:00 51°13.624 2°56.048 -999 -999 -999 -999
2008-11-12 08:18:10 51°13.623 2°56.048 -999 -999 -999 -999
2008-11-12 08:18:20 51°13.623 2°56.048 -999 -999 -999 -999
2008-11-12 08:18:30 51°13.623 2°56.048 -999 -999 -999 -999
2008-11-12 08:18:40 51°13.623 2°56.048 -999 -999 -999 -999
2008-11-12 08:18:50 51°13.623 2°56.048 -999 -999 -999 -999
2008-11-12 08:19:00 51°13.624 2°56.048 -999 -999 -999 -999
2008-11-12 08:19:10 51°13.624 2°56.048 -999 -999 -999 -999
2008-11-12 08:19:20 51°13.624 2°56.048 -999 -999 -999 -999
2008-11-12 08:19:30 51°13.624 2°56.048 -999 -999 -999 -999
2008-11-12 08:19:34 51°13.624 2°56.048 -999 0.047662 0.25668 -0.965744
2008-11-12 08:19:40 51°13.624 2°56.048 -999 -999 -999 -999
2008-11-12 08:19:50 51°13.624 2°56.048 -999 -999 -999 -999
2008-11-12 08:20:00 51°13.624 2°56.048 -999 -999 -999 -999
2008-11-12 08:20:10 51°13.624 2°56.048 -999 -999 -999 -999
2008-11-12 08:20:14 51°13.623 2°56.048 -999 0.047559 0.25614 -1.000568
2008-11-12 08:20:20 51°13.623 2°56.047 -999 -999 -999 -999
2008-11-12 08:20:30 51°13.622 2°56.047 -999 -999 -999 -999
2008-11-12 08:20:40 51°13.623 2°56.047 -999 -999 -999 -999
2008-11-12 08:20:50 51°13.623 2°56.047 -999 -999 -999 -999
2008-11-12 08:21:00 51°13.624 2°56.047 -999 -999 -999 -999
2008-11-12 08:21:10 51°13.623 2°56.047 -999 -999 -999 -999
2008-11-12 08:21:20 51°13.624 2°56.047 -999 -999 -999 -999
2008-11-12 08:21:30 51°13.624 2°56.048 -999 -999 -999 -999
2008-11-12 08:21:40 51°13.624 2°56.048 -999 -999 -999 -999
2008-11-12 08:21:50 51°13.624 2°56.047 -999 -999 -999 -999
2008-11-12 08:22:00 51°13.624 2°56.047 -999 -999 -999 -999
2008-11-12 08:22:10 51°13.623 2°56.047 -999 -999 -999 -999
2008-11-12 08:22:20 51°13.624 2°56.047 -999 -999 -999 -999
2008-11-12 08:22:30 51°13.624 2°56.047 -999 -999 -999 -999
2008-11-12 08:22:40 51°13.624 2°56.047 -999 -999 -999 -999
2008-11-12 08:22:50 51°13.624 2°56.047 -999 -999 -999 -999
2008-11-12 08:23:00 51°13.624 2°56.048 -999 -999 -999 -999
2008-11-12 08:23:10 51°13.624 2°56.048 -999 -999 -999 -999
2008-11-12 08:23:20 51°13.624 2°56.048 -999 -999 -999 -999
2008-11-12 08:23:30 51°13.624 2°56.048 -999 -999 -999 -999
2008-11-12 08:23:40 51°13.624 2°56.048 -999 -999 -999 -999
2008-11-12 08:23:44 51°13.624 2°56.048 -999 0.097471 0.540352 -1.10504
2008-11-12 08:23:50 51°13.624 2°56.048 -999 -999 -999 -999
2008-11-12 08:24:00 51°13.624 2°56.048 -999 -999 -999 -999
2008-11-12 08:24:10 51°13.624 2°56.048 -999 -999 -999 -999
2008-11-12 08:24:20 51°13.624 2°56.048 -999 -999 -999 -999
2008-11-12 08:24:30 51°13.624 2°56.048 -999 -999 -999 -999
2008-11-12 08:24:40 51°13.624 2°56.048 -999 -999 -999 -999
2008-11-12 08:24:50 51°13.624 2°56.048 -999 -999 -999 -999
2008-11-12 08:25:00 51°13.624 2°56.048 -999 -999 -999 -999
2008-11-12 08:25:10 51°13.625 2°56.048 -999 -999 -999 -999
2008-11-12 08:25:20 51°13.625 2°56.047 -999 -999 -999 -999
2008-11-12 08:25:30 51°13.625 2°56.047 -999 -999 -999 -999
2008-11-12 08:25:40 51°13.626 2°56.048 -999 -999 -999 -999
2008-11-12 08:25:50 51°13.626 2°56.048 -999 -999 -999 -999
2008-11-12 08:26:00 51°13.626 2°56.048 -999 -999 -999 -999
2008-11-12 08:26:10 51°13.627 2°56.048 -999 -999 -999 -999
2008-11-12 08:26:20 51°13.627 2°56.048 -999 -999 -999 -999
2008-11-12 08:26:30 51°13.627 2°56.048 -999 -999 -999 -999
2008-11-12 08:26:40 51°13.627 2°56.048 -999 -999 -999 -999
2008-11-12 08:26:50 51°13.627 2°56.048 -999 -999 -999 -999
2008-11-12 08:27:00 51°13.626 2°56.048 -999 -999 -999 -999
2008-11-12 08:27:10 51°13.626 2°56.048 -999 -999 -999 -999
2008-11-12 08:27:20 51°13.627 2°56.048 -999 -999 -999 -999
2008-11-12 08:27:30 51°13.628 2°56.049 -999 -999 -999 -999
2008-11-12 08:27:40 51°13.628 2°56.049 -999 -999 -999 -999
2008-11-12 08:27:50 51°13.628 2°56.049 -999 -999 -999 -999
2008-11-12 08:28:00 51°13.627 2°56.048 -999 -999 -999 -999
2008-11-12 08:28:10 51°13.625 2°56.047 -999 -999 -999 -999
2008-11-12 08:28:20 51°13.625 2°56.047 -999 -999 -999 -999
2008-11-12 08:28:30 51°13.625 2°56.047 -999 -999 -999 -999
2008-11-12 08:28:40 51°13.625 2°56.047 -999 -999 -999 -999
2008-11-12 08:28:50 51°13.625 2°56.048 -999 -999 -999 -999
2008-11-12 08:29:00 51°13.625 2°56.048 -999 -999 -999 -999
2008-11-12 08:29:10 51°13.626 2°56.048 -999 -999 -999 -999
2008-11-12 08:29:20 51°13.626 2°56.048 -999 -999 -999 -999
2008-11-12 08:29:30 51°13.626 2°56.048 -999 -999 -999 -999
2008-11-12 08:29:40 51°13.626 2°56.048 -999 -999 -999 -999
2008-11-12 08:29:50 51°13.625 2°56.048 -999 -999 -999 -999
2008-11-12 08:30:00 51°13.624 2°56.047 -999 -999 -999 -999
2008-11-12 08:30:10 51°13.623 2°56.047 -999 -999 -999 -999
2008-11-12 08:30:20 51°13.623 2°56.047 -999 -999 -999 -999
2008-11-12 08:30:30 51°13.623 2°56.047 -999 -999 -999 -999
2008-11-12 08:30:40 51°13.624 2°56.047 -999 -999 -999 -999
2008-11-12 08:30:50 51°13.624 2°56.048 -999 -999 -999 -999
2008-11-12 08:31:00 51°13.624 2°56.048 -999 -999 -999 -999
2008-11-12 08:31:10 51°13.624 2°56.048 -999 -999 -999 -999
2008-11-12 08:31:20 51°13.624 2°56.048 -999 -999 -999 -999
2008-11-12 08:31:30 51°13.624 2°56.048 -999 -999 -999 -999
2008-11-12 08:31:40 51°13.624 2°56.048 -999 -999 -999 -999
2008-11-12 08:31:50 51°13.624 2°56.048 -999 -999 -999 -999
2008-11-12 08:32:00 51°13.624 2°56.048 -999 -999 -999 -999
2008-11-12 08:32:10 51°13.625 2°56.048 -999 -999 -999 -999
2008-11-12 08:32:20 51°13.624 2°56.048 -999 -999 -999 -999
2008-11-12 08:32:30 51°13.625 2°56.048 -999 -999 -999 -999
2008-11-12 08:32:40 51°13.625 2°56.048 -999 -999 -999 -999
2008-11-12 08:32:50 51°13.624 2°56.048 -999 -999 -999 -999
2008-11-12 08:33:00 51°13.624 2°56.048 -999 -999 -999 -999
2008-11-12 08:33:10 51°13.624 2°56.048 -999 -999 -999 -999
2008-11-12 08:33:20 51°13.625 2°56.048 -999 -999 -999 -999
2008-11-12 08:33:30 51°13.625 2°56.048 -999 -999 -999 -999
2008-11-12 08:33:40 51°13.625 2°56.048 -999 -999 -999 -999
2008-11-12 08:33:50 51°13.625 2°56.048 -999 -999 -999 -999
2008-11-12 08:34:00 51°13.625 2°56.048 -999 -999 -999 -999
2008-11-12 08:34:10 51°13.625 2°56.048 -999 -999 -999 -999
2008-11-12 08:34:20 51°13.625 2°56.048 -999 -999 -999 -999
2008-11-12 08:34:30 51°13.625 2°56.048 -999 -999 -999 -999
2008-11-12 08:34:40 51°13.625 2°56.048 -999 -999 -999 -999
2008-11-12 08:34:50 51°13.625 2°56.048 -999 -999 -999 -999
2008-11-12 08:35:00 51°13.625 2°56.048 -999 -999 -999 -999
2008-11-12 08:35:10 51°13.625 2°56.048 -999 -999 -999 -999
2008-11-12 08:35:20 51°13.625 2°56.048 -999 -999 -999 -999
2008-11-12 08:35:30 51°13.625 2°56.048 -999 -999 -999 -999
2008-11-12 08:35:40 51°13.625 2°56.048 -999 -999 -999 -999
2008-11-12 08:35:50 51°13.625 2°56.048 -999 -999 -999 -999
2008-11-12 08:36:00 51°13.625 2°56.048 -999 -999 -999 -999
2008-11-12 08:36:10 51°13.625 2°56.048 -999 -999 -999 -999
2008-11-12 08:36:20 51°13.625 2°56.048 -999 -999 -999 -999
2008-11-12 08:36:30 51°13.625 2°56.048 -999 -999 -999 -999
2008-11-12 08:36:40 51°13.625 2°56.048 -999 -999 -999 -999
2008-11-12 08:36:50 51°13.625 2°56.048 -999 -999 -999 -999
2008-11-12 08:37:00 51°13.624 2°56.048 -999 -999 -999 -999
2008-11-12 08:37:10 51°13.624 2°56.048 -999 -999 -999 -999
2008-11-12 08:37:20 51°13.624 2°56.048 -999 -999 -999 -999
2008-11-12 08:37:30 51°13.625 2°56.048 -999 -999 -999 -999
2008-11-12 08:37:40 51°13.625 2°56.048 -999 -999 -999 -999
2008-11-12 08:37:50 51°13.625 2°56.048 -999 -999 -999 -999
2008-11-12 08:38:00 51°13.624 2°56.048 -999 -999 -999 -999
2008-11-12 08:38:10 51°13.624 2°56.048 -999 -999 -999 -999
2008-11-12 08:38:20 51°13.624 2°56.047 -999 -999 -999 -999
2008-11-12 08:38:30 51°13.624 2°56.047 -999 -999 -999 -999
2008-11-12 08:38:40 51°13.624 2°56.047 -999 -999 -999 -999
2008-11-12 08:38:50 51°13.624 2°56.047 -999 -999 -999 -999
2008-11-12 08:39:00 51°13.624 2°56.047 -999 -999 -999 -999
2008-11-12 08:39:10 51°13.624 2°56.047 -999 -999 -999 -999
2008-11-12 08:39:20 51°13.624 2°56.047 -999 -999 -999 -999
2008-11-12 08:39:30 51°13.625 2°56.047 -999 -999 -999 -999
2008-11-12 08:39:40 51°13.625 2°56.047 -999 -999 -999 -999
2008-11-12 08:39:50 51°13.625 2°56.047 -999 -999 -999 -999
2008-11-12 08:40:00 51°13.625 2°56.047 -999 -999 -999 -999
2008-11-12 08:40:10 51°13.625 2°56.047 -999 -999 -999 -999
2008-11-12 08:40:20 51°13.625 2°56.047 -999 -999 -999 -999
2008-11-12 08:40:30 51°13.625 2°56.047 -999 -999 -999 -999
2008-11-12 08:40:40 51°13.625 2°56.047 -999 -999 -999 -999
2008-11-12 08:40:50 51°13.625 2°56.047 -999 -999 -999 -999
2008-11-12 08:41:00 51°13.625 2°56.047 -999 -999 -999 -999
2008-11-12 08:41:10 51°13.625 2°56.047 -999 -999 -999 -999
2008-11-12 08:41:20 51°13.625 2°56.047 -999 -999 -999 -999
2008-11-12 08:41:30 51°13.625 2°56.047 -999 -999 -999 -999
2008-11-12 08:41:40 51°13.625 2°56.047 -999 -999 -999 -999
2008-11-12 08:41:50 51°13.625 2°56.047 -999 -999 -999 -999
2008-11-12 08:42:00 51°13.625 2°56.047 -999 -999 -999 -999
2008-11-12 08:42:10 51°13.626 2°56.047 -999 -999 -999 -999
2008-11-12 08:42:20 51°13.626 2°56.047 -999 -999 -999 -999
2008-11-12 08:42:30 51°13.626 2°56.047 -999 -999 -999 -999
2008-11-12 08:42:40 51°13.626 2°56.047 -999 -999 -999 -999
2008-11-12 08:42:50 51°13.625 2°56.047 -999 -999 -999 -999
2008-11-12 08:43:00 51°13.625 2°56.047 -999 -999 -999 -999
2008-11-12 08:43:10 51°13.625 2°56.047 -999 -999 -999 -999
2008-11-12 08:43:20 51°13.625 2°56.047 -999 -999 -999 -999
2008-11-12 08:43:30 51°13.625 2°56.047 -999 -999 -999 -999
2008-11-12 08:43:40 51°13.625 2°56.048 -999 -999 -999 -999
2008-11-12 08:43:50 51°13.625 2°56.048 -999 -999 -999 -999
2008-11-12 08:44:00 51°13.625 2°56.048 -999 -999 -999 -999
2008-11-12 08:44:10 51°13.625 2°56.048 -999 -999 -999 -999
2008-11-12 08:44:20 51°13.625 2°56.048 -999 -999 -999 -999
2008-11-12 08:44:30 51°13.625 2°56.048 -999 -999 -999 -999
2008-11-12 08:44:40 51°13.624 2°56.048 -999 -999 -999 -999
2008-11-12 08:44:50 51°13.623 2°56.047 -999 -999 -999 -999
2008-11-12 08:45:00 51°13.621 2°56.048 -999 -999 -999 -999
2008-11-12 08:45:10 51°13.621 2°56.048 -999 -999 -999 -999
2008-11-12 08:45:20 51°13.621 2°56.048 -999 -999 -999 -999
2008-11-12 08:45:30 51°13.622 2°56.048 -999 -999 -999 -999
2008-11-12 08:45:40 51°13.621 2°56.049 -999 -999 -999 -999
2008-11-12 08:45:50 51°13.62 2°56.049 -999 -999 -999 -999
2008-11-12 08:46:00 51°13.62 2°56.049 -999 -999 -999 -999
2008-11-12 08:46:10 51°13.62 2°56.049 -999 -999 -999 -999
2008-11-12 08:46:20 51°13.62 2°56.049 -999 -999 -999 -999
2008-11-12 08:46:30 51°13.62 2°56.05 -999 -999 -999 -999
2008-11-12 08:46:40 51°13.62 2°56.05 -999 -999 -999 -999
2008-11-12 08:46:50 51°13.62 2°56.05 -999 -999 -999 -999
2008-11-12 08:47:00 51°13.621 2°56.05 -999 -999 -999 -999
2008-11-12 08:47:10 51°13.621 2°56.05 -999 -999 -999 -999
2008-11-12 08:47:20 51°13.621 2°56.049 -999 -999 -999 -999
2008-11-12 08:47:30 51°13.621 2°56.049 -999 -999 -999 -999
2008-11-12 08:47:40 51°13.622 2°56.049 -999 -999 -999 -999
2008-11-12 08:47:50 51°13.622 2°56.049 -999 -999 -999 -999
2008-11-12 08:48:00 51°13.622 2°56.049 -999 -999 -999 -999
2008-11-12 08:48:10 51°13.622 2°56.049 -999 -999 -999 -999
2008-11-12 08:48:20 51°13.622 2°56.049 -999 -999 -999 -999
2008-11-12 08:48:30 51°13.621 2°56.049 -999 -999 -999 -999
2008-11-12 08:48:40 51°13.62 2°56.048 -999 -999 -999 -999
2008-11-12 08:48:50 51°13.62 2°56.048 -999 -999 -999 -999
2008-11-12 08:49:00 51°13.62 2°56.048 -999 -999 -999 -999
2008-11-12 08:49:10 51°13.62 2°56.048 -999 -999 -999 -999
2008-11-12 08:49:20 51°13.621 2°56.048 -999 -999 -999 -999
2008-11-12 08:49:30 51°13.621 2°56.048 -999 -999 -999 -999
2008-11-12 08:49:40 51°13.621 2°56.048 -999 -999 -999 -999
2008-11-12 08:49:50 51°13.622 2°56.048 -999 -999 -999 -999
2008-11-12 08:50:00 51°13.622 2°56.048 -999 -999 -999 -999
2008-11-12 08:50:10 51°13.623 2°56.048 -999 -999 -999 -999
2008-11-12 08:50:20 51°13.623 2°56.048 -999 -999 -999 -999
2008-11-12 08:50:30 51°13.623 2°56.048 -999 -999 -999 -999
2008-11-12 08:50:40 51°13.623 2°56.048 -999 -999 -999 -999
2008-11-12 08:50:50 51°13.623 2°56.048 -999 -999 -999 -999
2008-11-12 08:51:00 51°13.624 2°56.048 -999 -999 -999 -999
2008-11-12 08:51:10 51°13.624 2°56.048 -999 -999 -999 -999
2008-11-12 08:51:20 51°13.624 2°56.048 -999 -999 -999 -999
2008-11-12 08:51:30 51°13.623 2°56.048 -999 -999 -999 -999
2008-11-12 08:51:40 51°13.623 2°56.048 -999 -999 -999 -999
2008-11-12 08:51:50 51°13.623 2°56.048 -999 -999 -999 -999
2008-11-12 08:52:00 51°13.623 2°56.048 -999 -999 -999 -999
2008-11-12 08:52:10 51°13.623 2°56.048 -999 -999 -999 -999
2008-11-12 08:52:20 51°13.623 2°56.048 -999 -999 -999 -999
2008-11-12 08:52:30 51°13.623 2°56.048 -999 -999 -999 -999
2008-11-12 08:52:40 51°13.623 2°56.048 -999 -999 -999 -999
2008-11-12 08:52:50 51°13.623 2°56.048 -999 -999 -999 -999
2008-11-12 08:53:00 51°13.623 2°56.048 -999 -999 -999 -999
2008-11-12 08:53:10 51°13.623 2°56.048 -999 -999 -999 -999
2008-11-12 08:53:20 51°13.623 2°56.048 -999 -999 -999 -999
2008-11-12 08:53:30 51°13.623 2°56.048 -999 -999 -999 -999
2008-11-12 08:53:40 51°13.623 2°56.048 -999 -999 -999 -999
2008-11-12 08:53:50 51°13.624 2°56.047 -999 -999 -999 -999
2008-11-12 08:54:00 51°13.624 2°56.047 -999 -999 -999 -999
2008-11-12 08:54:10 51°13.624 2°56.047 -999 -999 -999 -999
2008-11-12 08:54:20 51°13.623 2°56.047 -999 -999 -999 -999
2008-11-12 08:54:30 51°13.623 2°56.047 -999 -999 -999 -999
2008-11-12 08:54:40 51°13.623 2°56.047 -999 -999 -999 -999
2008-11-12 08:54:50 51°13.623 2°56.047 -999 -999 -999 -999
2008-11-12 08:55:00 51°13.624 2°56.047 -999 -999 -999 -999
2008-11-12 08:55:10 51°13.623 2°56.047 -999 -999 -999 -999
2008-11-12 08:55:20 51°13.623 2°56.048 -999 -999 -999 -999
2008-11-12 08:55:30 51°13.623 2°56.048 -999 -999 -999 -999
2008-11-12 08:55:40 51°13.623 2°56.048 -999 -999 -999 -999
2008-11-12 08:55:50 51°13.623 2°56.048 -999 -999 -999 -999
2008-11-12 08:56:00 51°13.623 2°56.048 -999 -999 -999 -999
2008-11-12 08:56:10 51°13.623 2°56.048 -999 -999 -999 -999
2008-11-12 08:56:20 51°13.623 2°56.048 -999 -999 -999 -999
2008-11-12 08:56:30 51°13.623 2°56.048 -999 -999 -999 -999
2008-11-12 08:56:40 51°13.623 2°56.048 -999 -999 -999 -999
2008-11-12 08:56:49 51°13.623 2°56.048 -999 0.299319 1.764799 -1.209513
2008-11-12 08:56:50 51°13.623 2°56.048 -999 -999 -999 -999
2008-11-12 08:56:54 51°13.623 2°56.048 -999 0.303025 1.787958 -1.209513
2008-11-12 08:56:59 51°13.623 2°56.048 -999 0.296025 1.744357 -1.209513
2008-11-12 08:57:00 51°13.623 2°56.048 -999 -999 -999 -999
2008-11-12 08:57:04 51°13.623 2°56.049 -999 0.275848 1.618978 -1.209513
2008-11-12 08:57:10 51°13.623 2°56.049 -999 -999 -999 -999
2008-11-12 08:57:20 51°13.623 2°56.048 -999 -999 -999 -999
2008-11-12 08:57:30 51°13.622 2°56.048 -999 -999 -999 -999
2008-11-12 08:57:40 51°13.622 2°56.048 -999 -999 -999 -999
2008-11-12 08:57:50 51°13.622 2°56.048 -999 -999 -999 -999
2008-11-12 08:58:00 51°13.622 2°56.048 -999 -999 -999 -999
2008-11-12 08:58:10 51°13.623 2°56.048 -999 -999 -999 -999
2008-11-12 08:58:20 51°13.623 2°56.048 -999 -999 -999 -999
2008-11-12 08:58:30 51°13.623 2°56.048 -999 -999 -999 -999
2008-11-12 08:58:40 51°13.623 2°56.048 -999 -999 -999 -999
2008-11-12 08:58:50 51°13.623 2°56.048 -999 -999 -999 -999
2008-11-12 08:59:00 51°13.623 2°56.048 -999 -999 -999 -999
2008-11-12 08:59:10 51°13.623 2°56.049 -999 -999 -999 -999
2008-11-12 08:59:19 51°13.623 2°56.048 -999 0.259274 1.517033 -1.209513
2008-11-12 08:59:20 51°13.623 2°56.048 -999 -999 -999 -999
2008-11-12 08:59:30 51°13.623 2°56.049 -999 -999 -999 -999
2008-11-12 08:59:40 51°13.623 2°56.049 -999 -999 -999 -999
2008-11-12 08:59:50 51°13.623 2°56.049 -999 -999 -999 -999
2008-11-12 09:00:00 51°13.623 2°56.049 -999 -999 -999 -999
2008-11-12 09:00:10 51°13.622 2°56.048 -999 -999 -999 -999
2008-11-12 09:00:14 51°13.622 2°56.048 -999 0.251862 1.471541 -1.174688
2008-11-12 09:00:20 51°13.621 2°56.048 -999 -999 -999 -999
2008-11-12 09:00:30 51°13.621 2°56.048 -999 -999 -999 -999
2008-11-12 09:00:39 51°13.621 2°56.048 -999 0.238069 1.386762 -1.209513
2008-11-12 09:00:40 51°13.621 2°56.048 -999 -999 -999 -999
2008-11-12 09:00:44 51°13.622 2°56.048 -999 0.238069 1.386762 -1.209513
2008-11-12 09:00:49 51°13.622 2°56.047 -999 0.227775 1.323609 -1.209513
2008-11-12 09:00:50 51°13.623 2°56.047 -999 -999 -999 -999
2008-11-12 09:00:54 51°13.623 2°56.046 -999 0.237657 1.384233 -1.209513
2008-11-12 09:00:59 51°13.623 2°56.045 -999 0.177236 1.016632 -1.209513
2008-11-12 09:01:00 51°13.624 2°56.045 -999 -999 -999 -999
2008-11-12 09:01:04 51°13.624 2°56.043 -999 0.194528 1.121073 -1.209513
2008-11-12 09:01:09 51°13.625 2°56.04 -999 0.25248 1.475457 -1.209513
2008-11-12 09:01:10 51°13.625 2°56.04 -999 -999 -999 -999
2008-11-12 09:01:14 51°13.626 2°56.037 -999 0.25248 1.475457 -1.209513
2008-11-12 09:01:19 51°13.627 2°56.034 -999 0.185882 1.068803 -1.209513
2008-11-12 09:01:20 51°13.627 2°56.034 -999 -999 -999 -999
2008-11-12 09:01:24 51°13.628 2°56.03 -999 0.182279 1.047091 -1.209513
2008-11-12 09:01:29 51°13.63 2°56.026 -999 0.15665 0.893169 -1.209513
2008-11-12 09:01:30 51°13.63 2°56.025 -999 -999 -999 -999
2008-11-12 09:01:34 51°13.631 2°56.022 -999 0.158709 0.905475 -1.209513
2008-11-12 09:01:39 51°13.633 2°56.017 -999 0.175486 1.006134 -1.209513
2008-11-12 09:01:40 51°13.633 2°56.017 -999 -999 -999 -999
2008-11-12 09:01:44 51°13.635 2°56.011 -999 0.175486 1.006134 -1.209513
2008-11-12 09:01:49 51°13.637 2°56.005 -999 0.180838 1.038418 -1.209513
2008-11-12 09:01:50 51°13.637 2°56.004 -999 -999 -999 -999
2008-11-12 09:01:54 51°13.639 2°55.999 -999 0.153871 0.876605 -1.209513
2008-11-12 09:01:59 51°13.642 2°55.992 -999 0.175589 1.006791 -1.209513
2008-11-12 09:02:00 51°13.642 2°55.991 -999 -999 -999 -999
2008-11-12 09:02:04 51°13.644 2°55.985 -999 0.190925 1.09942 -1.209513
2008-11-12 09:02:09 51°13.646 2°55.979 -999 0.183 1.051535 -1.209513
2008-11-12 09:02:10 51°13.647 2°55.977 -999 -999 -999 -999
2008-11-12 09:02:14 51°13.648 2°55.971 -999 0.183 1.051535 -1.209513
2008-11-12 09:02:19 51°13.65 2°55.964 -999 0.153048 0.871755 -1.209513
2008-11-12 09:02:20 51°13.65 2°55.964 -999 -999 -999 -999
2008-11-12 09:02:24 51°13.652 2°55.956 -999 0.140286 0.795785 -1.209513
2008-11-12 09:02:29 51°13.655 2°55.948 -999 0.141315 0.801909 -1.209513
2008-11-12 09:02:30 51°13.655 2°55.946 -999 -999 -999 -999
2008-11-12 09:02:34 51°13.656 2°55.939 -999 0.13905 0.788486 -1.209513
2008-11-12 09:02:39 51°13.658 2°55.93 -999 0.251657 1.47073 -1.209513
2008-11-12 09:02:40 51°13.659 2°55.929 -999 -999 -999 -999
2008-11-12 09:02:44 51°13.66 2°55.922 -999 0.251657 1.47073 -1.209513
2008-11-12 09:02:49 51°13.662 2°55.914 -999 0.267715 1.570153 -1.209513
2008-11-12 09:02:50 51°13.662 2°55.912 -999 -999 -999 -999
2008-11-12 09:02:54 51°13.663 2°55.905 -999 0.208938 1.209038 -1.209513
2008-11-12 09:02:59 51°13.665 2°55.897 -999 0.197204 1.137712 -1.209513
2008-11-12 09:03:00 51°13.665 2°55.896 -999 -999 -999 -999
2008-11-12 09:03:04 51°13.666 2°55.889 -999 0.2076 1.200869 -1.209513
2008-11-12 09:03:09 51°13.668 2°55.881 -999 0.171883 0.984754 -1.209513
2008-11-12 09:03:10 51°13.668 2°55.88 -999 -999 -999 -999
2008-11-12 09:03:14 51°13.669 2°55.873 -999 0.171883 0.984754 -1.209513
2008-11-12 09:03:19 51°13.67 2°55.865 -999 0.157371 0.897737 -1.209513
2008-11-12 09:03:20 51°13.671 2°55.864 -999 -999 -999 -999
2008-11-12 09:03:24 51°13.671 2°55.858 -999 0.156136 0.890354 -1.174688
2008-11-12 09:03:29 51°13.673 2°55.85 -999 0.155621 0.887279 -1.209513
2008-11-12 09:03:30 51°13.673 2°55.848 -999 -999 -999 -999
2008-11-12 09:03:34 51°13.674 2°55.842 -999 0.182794 1.050504 -1.209513
2008-11-12 09:03:39 51°13.675 2°55.835 -999 0.184955 1.063577 -1.209513
2008-11-12 09:03:40 51°13.675 2°55.835 -999 -999 -999 -999
2008-11-12 09:03:44 51°13.676 2°55.827 -999 0.184955 1.063577 -1.209513
2008-11-12 09:03:49 51°13.677 2°55.821 -999 0.236113 1.375383 -1.209513
2008-11-12 09:03:50 51°13.678 2°55.819 -999 -999 -999 -999
2008-11-12 09:03:54 51°13.678 2°55.814 -999 0.206571 1.194779 -1.209513
2008-11-12 09:03:59 51°13.679 2°55.808 -999 0.214908 1.245636 -1.209513
2008-11-12 09:04:00 51°13.68 2°55.807 -999 -999 -999 -999
2008-11-12 09:04:04 51°13.68 2°55.802 -999 0.199674 1.152916 -1.209513
2008-11-12 09:04:09 51°13.681 2°55.796 -999 0.208218 1.204871 -1.209513
2008-11-12 09:04:10 51°13.681 2°55.795 -999 -999 -999 -999
2008-11-12 09:04:14 51°13.682 2°55.791 -999 0.208218 1.204871 -1.209513
2008-11-12 09:04:19 51°13.682 2°55.786 -999 0.208526 1.206774 -1.209513
2008-11-12 09:04:20 51°13.682 2°55.786 -999 -999 -999 -999
2008-11-12 09:04:24 51°13.683 2°55.781 -999 0.235701 1.373006 -1.209513
2008-11-12 09:04:29 51°13.684 2°55.776 -999 0.232407 1.352786 -1.209513
2008-11-12 09:04:30 51°13.684 2°55.775 -999 -999 -999 -999
2008-11-12 09:04:34 51°13.684 2°55.772 -999 0.221599 1.286604 -1.209513
2008-11-12 09:04:39 51°13.685 2°55.767 -999 0.267612 1.569919 -1.209513
2008-11-12 09:04:40 51°13.685 2°55.766 -999 -999 -999 -999
2008-11-12 09:04:44 51°13.686 2°55.763 -999 0.267612 1.569919 -1.209513
2008-11-12 09:04:49 51°13.686 2°55.759 -999 0.261127 1.529828 -1.209513
2008-11-12 09:04:50 51°13.686 2°55.759 -999 -999 -999 -999
2008-11-12 09:04:54 51°13.687 2°55.756 -999 0.211717 1.226331 -1.209513
2008-11-12 09:04:59 51°13.687 2°55.753 -999 0.208012 1.20375 -1.209513
2008-11-12 09:05:00 51°13.687 2°55.752 -999 -999 -999 -999
2008-11-12 09:05:04 51°13.688 2°55.751 -999 0.277495 1.631348 -1.209513
2008-11-12 09:05:09 51°13.688 2°55.749 -999 0.274304 1.611591 -1.209513
2008-11-12 09:05:10 51°13.688 2°55.749 -999 -999 -999 -999
2008-11-12 09:05:14 51°13.689 2°55.748 -999 0.274304 1.611591 -1.209513
2008-11-12 09:05:19 51°13.689 2°55.748 -999 0.305702 1.80726 -1.209513
2008-11-12 09:05:20 51°13.689 2°55.748 -999 -999 -999 -999
2008-11-12 09:05:24 51°13.689 2°55.748 -999 0.34678 2.065514 -1.209513
2008-11-12 09:05:29 51°13.69 2°55.749 -999 0.331852 1.971446 -1.209513
2008-11-12 09:05:30 51°13.69 2°55.749 -999 -999 -999 -999
2008-11-12 09:05:34 51°13.691 2°55.751 -999 0.392082 2.352982 -1.209513
2008-11-12 09:05:39 51°13.691 2°55.753 -999 0.36871 2.20442 -1.174688
2008-11-12 09:05:40 51°13.692 2°55.753 -999 -999 -999 -999
2008-11-12 09:05:44 51°13.692 2°55.755 -999 0.36871 2.20442 -1.174688
2008-11-12 09:05:49 51°13.694 2°55.758 -999 0.35759 2.134045 -1.209513
2008-11-12 09:05:50 51°13.694 2°55.759 -999 -999 -999 -999
2008-11-12 09:05:54 51°13.696 2°55.761 -999 0.321145 1.904317 -1.209513
2008-11-12 09:05:59 51°13.698 2°55.764 -999 0.313423 1.855912 -1.209513
2008-11-12 09:06:00 51°13.698 2°55.764 -999 -999 -999 -999
2008-11-12 09:06:04 51°13.7 2°55.767 -999 0.284907 1.677775 -1.209513
2008-11-12 09:06:09 51°13.703 2°55.769 -999 0.213879 1.23981 -1.209513
2008-11-12 09:06:10 51°13.703 2°55.77 -999 -999 -999 -999
2008-11-12 09:06:14 51°13.705 2°55.771 -999 0.213879 1.23981 -1.209513
2008-11-12 09:06:19 51°13.708 2°55.773 -999 0.143064 0.812851 -1.209513
2008-11-12 09:06:20 51°13.709 2°55.773 -999 -999 -999 -999
2008-11-12 09:06:24 51°13.711 2°55.774 -999 0.145432 0.826904 -1.209513
2008-11-12 09:06:29 51°13.713 2°55.775 -999 0.127832 0.722553 -1.209513
2008-11-12 09:06:30 51°13.714 2°55.775 -999 -999 -999 -999
2008-11-12 09:06:34 51°13.716 2°55.776 -999 0.135448 0.767609 -1.209513
2008-11-12 09:06:39 51°13.717 2°55.776 -999 0.132258 0.748728 -1.209513
2008-11-12 09:06:40 51°13.718 2°55.776 -999 -999 -999 -999
2008-11-12 09:06:44 51°13.719 2°55.776 -999 0.132258 0.748728 -1.209513
2008-11-12 09:06:49 51°13.72 2°55.775 -999 0.12495 0.70556 -1.209513
2008-11-12 09:06:50 51°13.72 2°55.775 -999 -999 -999 -999
2008-11-12 09:06:54 51°13.721 2°55.775 -999 0.159326 0.909899 -1.209513
2008-11-12 09:06:59 51°13.721 2°55.774 -999 0.103029 0.576999 -1.209513
2008-11-12 09:07:00 51°13.721 2°55.774 -999 -999 -999 -999
2008-11-12 09:07:04 51°13.72 2°55.773 -999 0.115893 0.652267 -1.209513
2008-11-12 09:07:09 51°13.72 2°55.772 -999 0.164781 0.942592 -1.209513
2008-11-12 09:07:10 51°13.719 2°55.772 -999 -999 -999 -999
2008-11-12 09:07:14 51°13.719 2°55.771 -999 0.164781 0.942592 -1.209513
2008-11-12 09:07:19 51°13.717 2°55.77 -999 0.138845 0.78781 -1.209513
2008-11-12 09:07:20 51°13.717 2°55.77 -999 -999 -999 -999
2008-11-12 09:07:24 51°13.716 2°55.77 -999 0.132361 0.749378 -1.209513
2008-11-12 09:07:29 51°13.715 2°55.769 -999 0.14574 0.828818 -1.209513
2008-11-12 09:07:30 51°13.714 2°55.769 -999 -999 -999 -999
2008-11-12 09:07:34 51°13.713 2°55.768 -999 0.148622 0.846001 -1.209513
2008-11-12 09:07:39 51°13.712 2°55.767 -999 0.237245 1.383023 -1.209513
2008-11-12 09:07:40 51°13.712 2°55.767 -999 -999 -999 -999
2008-11-12 09:07:44 51°13.712 2°55.766 -999 0.237245 1.383023 -1.209513
2008-11-12 09:07:49 51°13.712 2°55.765 -999 0.240025 1.400189 -1.209513
2008-11-12 09:07:50 51°13.712 2°55.765 -999 -999 -999 -999
2008-11-12 09:07:54 51°13.713 2°55.764 -999 0.228907 1.331959 -1.209513
2008-11-12 09:07:59 51°13.715 2°55.763 -999 0.239407 1.396467 -1.209513
2008-11-12 09:08:00 51°13.715 2°55.762 -999 -999 -999 -999
2008-11-12 09:08:04 51°13.716 2°55.761 -999 0.283054 1.666641 -1.209513
2008-11-12 09:08:09 51°13.718 2°55.759 -999 0.239304 1.395937 -1.209513
2008-11-12 09:08:10 51°13.719 2°55.759 -999 -999 -999 -999
2008-11-12 09:08:14 51°13.721 2°55.757 -999 0.239304 1.395937 -1.209513
2008-11-12 09:08:19 51°13.723 2°55.754 -999 0.16262 0.929884 -1.209513
2008-11-12 09:08:20 51°13.724 2°55.753 -999 -999 -999 -999
2008-11-12 09:08:24 51°13.726 2°55.75 -999 0.155724 0.888559 -1.209513
2008-11-12 09:08:29 51°13.729 2°55.746 -999 0.160973 0.919996 -1.209513
2008-11-12 09:08:30 51°13.729 2°55.746 -999 -999 -999 -999
2008-11-12 09:08:34 51°13.732 2°55.742 -999 0.140388 0.797165 -1.209513
2008-11-12 09:08:39 51°13.735 2°55.737 -999 0.15346 0.875041 -1.209513
2008-11-12 09:08:40 51°13.736 2°55.736 -999 -999 -999 -999
2008-11-12 09:08:44 51°13.739 2°55.732 -999 0.15346 0.875041 -1.209513
2008-11-12 09:08:49 51°13.743 2°55.727 -999 0.151195 0.861505 -1.209513
2008-11-12 09:08:50 51°13.744 2°55.726 -999 -999 -999 -999
2008-11-12 09:08:54 51°13.747 2°55.721 -999 0.139153 0.789815 -1.209513
2008-11-12 09:08:59 51°13.752 2°55.716 -999 0.126494 0.714863 -1.209513
2008-11-12 09:09:00 51°13.752 2°55.715 -999 -999 -999 -999
2008-11-12 09:09:04 51°13.756 2°55.71 -999 0.129993 0.735537 -1.209513
2008-11-12 09:09:09 51°13.761 2°55.704 -999 0.124024 0.700289 -1.209513
2008-11-12 09:09:10 51°13.762 2°55.702 -999 -999 -999 -999
2008-11-12 09:09:14 51°13.766 2°55.698 -999 0.124024 0.700289 -1.209513
2008-11-12 09:09:19 51°13.771 2°55.692 -999 0.113218 0.636742 -1.209513
2008-11-12 09:09:20 51°13.772 2°55.69 -999 -999 -999 -999
2008-11-12 09:09:24 51°13.776 2°55.685 -999 0.119907 0.676052 -1.209513
2008-11-12 09:09:29 51°13.782 2°55.679 -999 0.109204 0.613252 -1.209513
2008-11-12 09:09:30 51°13.783 2°55.678 -999 -999 -999 -999
2008-11-12 09:09:34 51°13.788 2°55.674 -999 0.11013 0.618685 -1.209513
2008-11-12 09:09:39 51°13.794 2°55.668 -999 0.121039 0.682766 -1.209513
2008-11-12 09:09:40 51°13.795 2°55.666 -999 -999 -999 -999
2008-11-12 09:09:44 51°13.8 2°55.662 -999 0.121039 0.682766 -1.209513
2008-11-12 09:09:49 51°13.806 2°55.657 -999 0.114144 0.642257 -1.209513
2008-11-12 09:09:50 51°13.807 2°55.656 -999 -999 -999 -999
2008-11-12 09:09:54 51°13.812 2°55.651 -999 0.121142 0.683422 -1.209513
2008-11-12 09:09:59 51°13.819 2°55.646 -999 0.117334 0.661018 -1.209513
2008-11-12 09:10:00 51°13.82 2°55.644 -999 -999 -999 -999
2008-11-12 09:10:04 51°13.826 2°55.64 -999 0.125568 0.709525 -1.209513
2008-11-12 09:10:09 51°13.833 2°55.634 -999 0.132978 0.753377 -1.209513
2008-11-12 09:10:10 51°13.834 2°55.633 -999 -999 -999 -999
2008-11-12 09:10:14 51°13.84 2°55.629 -999 0.132978 0.753377 -1.209513
2008-11-12 09:10:19 51°13.847 2°55.623 -999 0.120731 0.681059 -1.209513
2008-11-12 09:10:20 51°13.848 2°55.622 -999 -999 -999 -999
2008-11-12 09:10:24 51°13.854 2°55.618 -999 0.114658 0.645359 -1.209513
2008-11-12 09:10:29 51°13.862 2°55.611 -999 0.112806 0.634501 -1.209513
2008-11-12 09:10:30 51°13.863 2°55.61 -999 -999 -999 -999
2008-11-12 09:10:34 51°13.869 2°55.605 -999 0.116923 0.65867 -1.209513
2008-11-12 09:10:39 51°13.877 2°55.599 -999 0.113526 0.638727 -1.209513
2008-11-12 09:10:40 51°13.878 2°55.598 -999 -999 -999 -999
2008-11-12 09:10:44 51°13.885 2°55.593 -999 0.113526 0.638727 -1.209513
2008-11-12 09:10:49 51°13.892 2°55.587 -999 0.109821 0.617011 -1.209513
2008-11-12 09:10:50 51°13.894 2°55.586 -999 -999 -999 -999
2008-11-12 09:10:54 51°13.9 2°55.581 -999 0.124127 0.7011 -1.209513
2008-11-12 09:10:59 51°13.908 2°55.575 -999 0.118878 0.670181 -1.209513
2008-11-12 09:11:00 51°13.909 2°55.574 -999 -999 -999 -999
2008-11-12 09:11:04 51°13.916 2°55.569 -999 0.127626 0.721758 -1.209513
2008-11-12 09:11:09 51°13.923 2°55.564 -999 0.123098 0.695031 -1.209513
2008-11-12 09:11:10 51°13.925 2°55.563 -999 -999 -999 -999
2008-11-12 09:11:14 51°13.93 2°55.559 -999 0.123098 0.695031 -1.209513
2008-11-12 09:11:19 51°13.938 2°55.553 -999 0.105705 0.592944 -1.209513
2008-11-12 09:11:20 51°13.939 2°55.552 -999 -999 -999 -999
2008-11-12 09:11:24 51°13.945 2°55.548 -999 0.11013 0.618831 -1.209513
2008-11-12 09:11:29 51°13.952 2°55.544 -999 0.107763 0.604988 -1.209513
2008-11-12 09:11:30 51°13.953 2°55.543 -999 -999 -999 -999
2008-11-12 09:11:34 51°13.959 2°55.539 -999 0.117026 0.659299 -1.209513
2008-11-12 09:11:39 51°13.966 2°55.535 -999 1.437823 9.486487 -1.035392
2008-11-12 09:11:40 51°13.967 2°55.534 -999 -999 -999 -999
2008-11-12 09:11:44 51°13.973 2°55.531 -999 1.437823 9.486487 -1.035392
2008-11-12 09:11:49 51°13.98 2°55.526 -999 2.220289 15.249405 -0.861272
2008-11-12 09:11:50 51°13.981 2°55.526 -999 -999 -999 -999
2008-11-12 09:11:54 51°13.986 2°55.522 -999 2.820141 19.867541 -0.861272
2008-11-12 09:11:59 51°13.993 2°55.518 -999 4.111739 30.367102 0.322746
2008-11-12 09:12:00 51°13.994 2°55.517 -999 -999 -999 -999
2008-11-12 09:12:04 51°14 2°55.514 -999 4.21903 32.167311 3.004198
2008-11-12 09:12:09 51°14.007 2°55.509 -999 3.915244 31.249301 3.839975
2008-11-12 09:12:10 51°14.008 2°55.509 -999 -999 -999 -999
2008-11-12 09:12:14 51°14.013 2°55.505 -999 3.915244 31.249301 3.839975
2008-11-12 09:12:19 51°14.02 2°55.501 -999 3.785456 31.214281 4.188216
2008-11-12 09:12:20 51°14.021 2°55.5 -999 -999 -999 -999
2008-11-12 09:12:24 51°14.026 2°55.497 -999 3.302637 27.499108 4.745401
2008-11-12 09:12:29 51°14.033 2°55.493 -999 2.986691 25.218233 5.023993
2008-11-12 09:12:30 51°14.034 2°55.492 -999 -999 -999 -999
2008-11-12 09:12:34 51°14.039 2°55.488 -999 2.811933 23.893728 5.128465
2008-11-12 09:12:39 51°14.046 2°55.484 -999 2.723906 23.24492 5.128465
2008-11-12 09:12:40 51°14.047 2°55.483 -999 -999 -999 -999
2008-11-12 09:12:44 51°14.052 2°55.479 -999 2.723906 23.24492 5.128465
2008-11-12 09:12:49 51°14.059 2°55.475 -999 2.667229 22.824415 5.163289
2008-11-12 09:12:50 51°14.06 2°55.474 -999 -999 -999 -999
2008-11-12 09:12:54 51°14.065 2°55.47 -999 2.599598 22.255521 5.163289
2008-11-12 09:12:59 51°14.072 2°55.465 -999 2.568681 22.00863 5.058817
2008-11-12 09:13:00 51°14.073 2°55.464 -999 -999 -999 -999
2008-11-12 09:13:04 51°14.079 2°55.46 -999 2.554619 21.912027 5.023993
2008-11-12 09:13:09 51°14.086 2°55.454 -999 2.556584 21.947878 4.954345
2008-11-12 09:13:10 51°14.088 2°55.453 -999 -999 -999 -999
2008-11-12 09:13:14 51°14.094 2°55.448 -999 2.556584 21.947878 4.954345
2008-11-12 09:13:19 51°14.101 2°55.442 -999 2.569095 22.089128 4.919521
2008-11-12 09:13:20 51°14.103 2°55.441 -999 -999 -999 -999
2008-11-12 09:13:24 51°14.109 2°55.436 -999 2.588432 22.282982 4.884697
2008-11-12 09:13:29 51°14.117 2°55.429 -999 2.601564 22.421717 4.815049
2008-11-12 09:13:30 51°14.118 2°55.428 -999 -999 -999 -999
2008-11-12 09:13:34 51°14.125 2°55.422 -999 2.620695 22.610502 4.815049
2008-11-12 09:13:39 51°14.133 2°55.415 -999 2.627934 22.687855 4.780225
2008-11-12 09:13:40 51°14.135 2°55.413 -999 -999 -999 -999
2008-11-12 09:13:44 51°14.142 2°55.407 -999 2.627934 22.687855 4.780225
2008-11-12 09:13:49 51°14.15 2°55.4 -999 2.634139 22.75493 4.745401
2008-11-12 09:13:50 51°14.152 2°55.398 -999 -999 -999 -999
2008-11-12 09:13:54 51°14.159 2°55.391 -999 2.637345 22.789749 4.745401
2008-11-12 09:13:59 51°14.168 2°55.382 -999 2.641171 22.83378 4.710577
2008-11-12 09:14:00 51°14.169 2°55.38 -999 -999 -999 -999
2008-11-12 09:14:04 51°14.176 2°55.373 -999 2.646549 22.894248 4.675753
2008-11-12 09:14:09 51°14.185 2°55.363 -999 2.659683 23.024691 4.606104
2008-11-12 09:14:10 51°14.187 2°55.362 -999 -999 -999 -999
2008-11-12 09:14:14 51°14.193 2°55.354 -999 2.659683 23.024691 4.606104
2008-11-12 09:14:19 51°14.202 2°55.343 -999 2.682333 23.241427 4.57128
2008-11-12 09:14:20 51°14.204 2°55.341 -999 -999 -999 -999
2008-11-12 09:14:24 51°14.21 2°55.333 -999 2.692986 23.347428 4.536456
2008-11-12 09:14:29 51°14.219 2°55.322 -999 2.699398 23.413079 4.57128
2008-11-12 09:14:30 51°14.22 2°55.32 -999 -999 -999 -999
2008-11-12 09:14:34 51°14.227 2°55.311 -999 2.718223 23.597241 4.536456
2008-11-12 09:14:39 51°14.235 2°55.299 -999 2.72267 23.64256 4.501632
2008-11-12 09:14:40 51°14.237 2°55.297 -999 -999 -999 -999
2008-11-12 09:14:44 51°14.244 2°55.288 -999 2.72267 23.64256 4.501632
2008-11-12 09:14:49 51°14.251 2°55.276 -999 2.733117 23.745225 4.501632
2008-11-12 09:14:50 51°14.253 2°55.274 -999 -999 -999 -999
2008-11-12 09:14:54 51°14.259 2°55.264 -999 2.733117 23.747517 4.501632
2008-11-12 09:14:59 51°14.267 2°55.253 -999 2.738186 23.796539 4.501632
2008-11-12 09:15:00 51°14.269 2°55.25 -999 -999 -999 -999
2008-11-12 09:15:04 51°14.275 2°55.24 -999 2.730014 23.719579 4.536456
2008-11-12 09:15:09 51°14.283 2°55.228 -999 2.7296 23.717343 4.57128
2008-11-12 09:15:10 51°14.284 2°55.225 -999 -999 -999 -999
2008-11-12 09:15:14 51°14.29 2°55.215 -999 2.7296 23.717343 4.57128
2008-11-12 09:15:19 51°14.297 2°55.202 -999 2.711396 23.549121 4.606104
2008-11-12 09:15:20 51°14.299 2°55.199 -999 -999 -999 -999
2008-11-12 09:15:24 51°14.304 2°55.189 -999 2.710776 23.54888 4.57128
2008-11-12 09:15:29 51°14.312 2°55.175 -999 2.71812 23.623613 4.57128
2008-11-12 09:15:30 51°14.313 2°55.173 -999 -999 -999 -999
2008-11-12 09:15:34 51°14.318 2°55.162 -999 2.730014 23.737916 4.606104
2008-11-12 09:15:39 51°14.325 2°55.149 -999 2.754529 23.969622 4.606104
2008-11-12 09:15:40 51°14.326 2°55.146 -999 -999 -999 -999
2008-11-12 09:15:44 51°14.332 2°55.135 -999 2.754529 23.969622 4.606104
2008-11-12 09:15:49 51°14.339 2°55.122 -999 2.772218 24.137884 4.536456
2008-11-12 09:15:50 51°14.34 2°55.119 -999 -999 -999 -999
2008-11-12 09:15:54 51°14.346 2°55.108 -999 2.796734 24.37294 4.57128
2008-11-12 09:15:59 51°14.352 2°55.094 -999 2.823942 24.634118 4.57128
2008-11-12 09:16:00 51°14.353 2°55.092 -999 -999 -999 -999
2008-11-12 09:16:04 51°14.359 2°55.081 -999 2.839875 24.78422 4.57128
2008-11-12 09:16:09 51°14.366 2°55.068 -999 2.882191 25.192572 4.57128
2008-11-12 09:16:10 51°14.368 2°55.066 -999 -999 -999 -999
2008-11-12 09:16:14 51°14.374 2°55.056 -999 2.882191 25.192572 4.57128
2008-11-12 09:16:19 51°14.382 2°55.044 -999 2.900505 25.370875 4.501632
2008-11-12 09:16:20 51°14.383 2°55.042 -999 -999 -999 -999
2008-11-12 09:16:24 51°14.39 2°55.032 -999 2.919131 25.55174 4.536456
2008-11-12 09:16:29 51°14.398 2°55.021 -999 2.954417 25.889375 4.501632
2008-11-12 09:16:30 51°14.399 2°55.018 -999 -999 -999 -999
2008-11-12 09:16:34 51°14.406 2°55.009 -999 2.971803 26.058713 4.466808
2008-11-12 09:16:39 51°14.415 2°54.997 -999 3.015269 26.48211 4.466808
2008-11-12 09:16:40 51°14.417 2°54.995 -999 -999 -999 -999
2008-11-12 09:16:44 51°14.424 2°54.986 -999 3.015269 26.48211 4.466808
2008-11-12 09:16:49 51°14.433 2°54.974 -999 3.041144 26.736284 4.466808
2008-11-12 09:16:50 51°14.436 2°54.972 -999 -999 -999 -999
2008-11-12 09:16:54 51°14.443 2°54.962 -999 3.057394 26.894705 4.431984
2008-11-12 09:16:59 51°14.452 2°54.951 -999 3.111841 27.426187 4.39716
2008-11-12 09:17:00 51°14.454 2°54.948 -999 -999 -999 -999
2008-11-12 09:17:04 51°14.462 2°54.939 -999 3.137411 27.67599 4.362336
2008-11-12 09:17:09 51°14.471 2°54.927 -999 3.167123 27.965181 4.292688
2008-11-12 09:17:10 51°14.473 2°54.924 -999 -999 -999 -999
2008-11-12 09:17:14 51°14.481 2°54.915 -999 3.167123 27.965181 4.292688
2008-11-12 09:17:19 51°14.492 2°54.905 -999 3.177165 28.061204 4.292688
2008-11-12 09:17:20 51°14.494 2°54.903 -999 -999 -999 -999
2008-11-12 09:17:24 51°14.502 2°54.894 -999 3.212367 28.40045 4.257864
2008-11-12 09:17:29 51°14.513 2°54.885 -999 3.244155 28.706691 4.188216
2008-11-12 09:17:30 51°14.515 2°54.883 -999 -999 -999 -999
2008-11-12 09:17:34 51°14.524 2°54.875 -999 3.272942 28.980346 4.188216
2008-11-12 09:17:39 51°14.535 2°54.866 -999 3.275738 28.998638 4.153392
2008-11-12 09:17:40 51°14.538 2°54.865 -999 -999 -999 -999
2008-11-12 09:17:44 51°14.547 2°54.858 -999 3.275738 28.998638 4.153392
2008-11-12 09:17:49 51°14.559 2°54.851 -999 3.310118 29.324491 4.188216
2008-11-12 09:17:50 51°14.561 2°54.85 -999 -999 -999 -999
2008-11-12 09:17:54 51°14.571 2°54.845 -999 3.325031 29.458754 4.04892
2008-11-12 09:17:59 51°14.583 2°54.839 -999 3.343259 29.624828 3.944447
2008-11-12 09:18:00 51°14.585 2°54.838 -999 -999 -999 -999
2008-11-12 09:18:04 51°14.595 2°54.833 -999 3.383238 30.006801 3.944447
2008-11-12 09:18:09 51°14.608 2°54.828 -999 3.416901 30.32849 3.909623
2008-11-12 09:18:10 51°14.61 2°54.827 -999 -999 -999 -999
2008-11-12 09:18:14 51°14.62 2°54.823 -999 3.416901 30.32849 3.909623
2008-11-12 09:18:19 51°14.633 2°54.818 -999 3.441969 30.566516 3.874799
2008-11-12 09:18:20 51°14.633 2°54.818 -999 -999 -999 -999
2008-11-12 09:18:24 51°14.646 2°54.814 -999 3.465899 30.793455 3.874799
2008-11-12 09:18:29 51°14.658 2°54.81 -999 3.493767 31.060116 3.839975
2008-11-12 09:18:30 51°14.661 2°54.809 -999 -999 -999 -999
2008-11-12 09:18:34 51°14.672 2°54.807 -999 3.509307 31.205993 3.805151
2008-11-12 09:18:39 51°14.684 2°54.804 -999 3.51428 31.248311 3.839975
2008-11-12 09:18:40 51°14.687 2°54.803 -999 -999 -999 -999
2008-11-12 09:18:44 51°14.697 2°54.801 -999 3.51428 31.248311 3.839975
2008-11-12 09:18:49 51°14.71 2°54.799 -999 3.539353 31.489143 3.700679
2008-11-12 09:18:50 51°14.713 2°54.798 -999 -999 -999 -999
2008-11-12 09:18:54 51°14.723 2°54.797 -999 3.550025 31.59081 3.839975
2008-11-12 09:18:59 51°14.736 2°54.795 -999 3.563495 31.720167 3.700679
2008-11-12 09:19:00 51°14.738 2°54.794 -999 -999 -999 -999
2008-11-12 09:19:04 51°14.748 2°54.792 -999 3.574479 31.824973 3.665855
2008-11-12 09:19:09 51°14.761 2°54.791 -999 3.586706 31.942113 3.631031
2008-11-12 09:19:10 51°14.764 2°54.79 -999 -999 -999 -999
2008-11-12 09:19:14 51°14.774 2°54.788 -999 3.586706 31.942113 3.631031
2008-11-12 09:19:19 51°14.787 2°54.786 -999 3.593234 32.004415 3.665855
2008-11-12 09:19:20 51°14.79 2°54.785 -999 -999 -999 -999
2008-11-12 09:19:24 51°14.8 2°54.783 -999 3.592094 31.993133 3.665855
2008-11-12 09:19:29 51°14.813 2°54.781 -999 3.602767 32.097256 3.596207
2008-11-12 09:19:30 51°14.815 2°54.78 -999 -999 -999 -999
2008-11-12 09:19:34 51°14.825 2°54.779 -999 3.600902 32.078014 3.631031
2008-11-12 09:19:39 51°14.838 2°54.776 -999 3.601835 32.088794 3.596207
2008-11-12 09:19:40 51°14.841 2°54.775 -999 -999 -999 -999
2008-11-12 09:19:44 51°14.851 2°54.773 -999 3.601835 32.088794 3.596207
2008-11-12 09:19:49 51°14.864 2°54.77 -999 3.602767 32.101123 3.526559
2008-11-12 09:19:50 51°14.867 2°54.769 -999 -999 -999 -999
2008-11-12 09:19:54 51°14.877 2°54.767 -999 3.601835 32.095755 3.456911
2008-11-12 09:19:59 51°14.89 2°54.764 -999 3.594788 32.029063 3.491735
2008-11-12 09:20:00 51°14.892 2°54.763 -999 -999 -999 -999
2008-11-12 09:20:04 51°14.903 2°54.761 -999 3.590436 31.988284 3.526559
2008-11-12 09:20:09 51°14.916 2°54.757 -999 3.585359 31.939557 3.387263
2008-11-12 09:20:10 51°14.918 2°54.757 -999 -999 -999 -999
2008-11-12 09:20:14 51°14.929 2°54.754 -999 3.585359 31.939557 3.387263
2008-11-12 09:20:19 51°14.942 2°54.75 -999 3.582768 31.914683 3.352439
2008-11-12 09:20:20 51°14.944 2°54.749 -999 -999 -999 -999
2008-11-12 09:20:24 51°14.955 2°54.747 -999 3.581525 31.903914 3.28279
2008-11-12 09:20:29 51°14.967 2°54.744 -999 3.582043 31.909042 3.317614
2008-11-12 09:20:30 51°14.97 2°54.743 -999 -999 -999 -999
2008-11-12 09:20:34 51°14.98 2°54.74 -999 3.579038 31.881605 3.28279
2008-11-12 09:20:39 51°14.993 2°54.737 -999 3.577691 31.869808 3.247966
2008-11-12 09:20:40 51°14.996 2°54.737 -999 -999 -999 -999
2008-11-12 09:20:44 51°15.006 2°54.734 -999 3.577691 31.869808 3.247966
2008-11-12 09:20:49 51°15.019 2°54.731 -999 3.577484 31.869294 3.213142
2008-11-12 09:20:50 51°15.022 2°54.73 -999 -999 -999 -999
2008-11-12 09:20:54 51°15.032 2°54.727 -999 3.573443 31.829297 3.247966
2008-11-12 09:20:59 51°15.045 2°54.724 -999 3.573961 31.835959 3.178318
2008-11-12 09:21:00 51°15.048 2°54.723 -999 -999 -999 -999
2008-11-12 09:21:04 51°15.058 2°54.72 -999 3.574686 31.842371 3.178318
2008-11-12 09:21:09 51°15.071 2°54.717 -999 3.571681 31.811864 3.143494
2008-11-12 09:21:10 51°15.074 2°54.717 -999 -999 -999 -999
2008-11-12 09:21:14 51°15.084 2°54.714 -999 3.571681 31.811864 3.143494
2008-11-12 09:21:19 51°15.097 2°54.711 -999 3.569505 31.791099 3.10867
2008-11-12 09:21:20 51°15.097 2°54.711 -999 -999 -999 -999
2008-11-12 09:21:24 51°15.109 2°54.707 -999 3.569816 31.794175 3.143494
2008-11-12 09:21:29 51°15.123 2°54.704 -999 3.572925 31.825704 3.10867
2008-11-12 09:21:30 51°15.125 2°54.703 -999 -999 -999 -999
2008-11-12 09:21:34 51°15.135 2°54.7 -999 3.572614 31.82186 3.143494
2008-11-12 09:21:39 51°15.148 2°54.697 -999 3.576758 31.862883 3.004198
2008-11-12 09:21:40 51°15.151 2°54.696 -999 -999 -999 -999
2008-11-12 09:21:44 51°15.161 2°54.693 -999 3.576758 31.862883 3.004198
2008-11-12 09:21:49 51°15.174 2°54.689 -999 3.573235 31.827246 3.004198
2008-11-12 09:21:50 51°15.177 2°54.688 -999 -999 -999 -999
2008-11-12 09:21:54 51°15.187 2°54.685 -999 3.571992 31.815708 3.039022
2008-11-12 09:21:59 51°15.2 2°54.681 -999 3.564013 31.736764 3.039022
2008-11-12 09:22:00 51°15.202 2°54.68 -999 -999 -999 -999
2008-11-12 09:22:04 51°15.213 2°54.676 -999 3.571474 31.810581 3.004198
2008-11-12 09:22:09 51°15.225 2°54.672 -999 3.558936 31.687306 2.93455
2008-11-12 09:22:10 51°15.228 2°54.671 -999 -999 -999 -999
2008-11-12 09:22:14 51°15.238 2°54.668 -999 3.558936 31.687306 2.93455
2008-11-12 09:22:19 51°15.251 2°54.663 -999 3.571681 31.813398 2.899726
2008-11-12 09:22:20 51°15.251 2°54.663 -999 -999 -999 -999
2008-11-12 09:22:24 51°15.264 2°54.659 -999 3.573339 31.828271 2.864902
2008-11-12 09:22:29 51°15.277 2°54.654 -999 3.572303 31.818784 2.830078
2008-11-12 09:22:30 51°15.28 2°54.653 -999 -999 -999 -999
2008-11-12 09:22:34 51°15.29 2°54.65 -999 3.575826 31.85442 2.830078
2008-11-12 09:22:39 51°15.303 2°54.644 -999 3.574997 31.845447 2.830078
2008-11-12 09:22:40 51°15.305 2°54.644 -999 -999 -999 -999
2008-11-12 09:22:44 51°15.316 2°54.64 -999 3.574997 31.845447 2.830078
2008-11-12 09:22:49 51°15.329 2°54.635 -999 3.57738 31.868268 2.830078
2008-11-12 09:22:50 51°15.331 2°54.634 -999 -999 -999 -999
2008-11-12 09:22:54 51°15.342 2°54.63 -999 3.582043 31.913658 2.830078
2008-11-12 09:22:59 51°15.354 2°54.626 -999 3.579556 31.887502 2.725606
2008-11-12 09:23:00 51°15.354 2°54.626 -999 -999 -999 -999
2008-11-12 09:23:04 51°15.367 2°54.621 -999 3.583494 31.926481 2.690782
2008-11-12 09:23:09 51°15.379 2°54.615 -999 3.586499 31.955463 2.690782
2008-11-12 09:23:10 51°15.382 2°54.614 -999 -999 -999 -999
2008-11-12 09:23:14 51°15.392 2°54.61 -999 3.586499 31.955463 2.690782
2008-11-12 09:23:19 51°15.405 2°54.605 -999 3.585773 31.948281 2.690782
2008-11-12 09:23:20 51°15.407 2°54.604 -999 -999 -999 -999
2008-11-12 09:23:24 51°15.417 2°54.6 -999 3.590747 31.996761 2.621133
2008-11-12 09:23:29 51°15.43 2°54.595 -999 3.58712 31.960848 2.586309
2008-11-12 09:23:30 51°15.432 2°54.594 -999 -999 -999 -999
2008-11-12 09:23:34 51°15.442 2°54.59 -999 3.600488 32.093242 2.551485
2008-11-12 09:23:39 51°15.454 2°54.585 -999 3.592612 32.013689 2.586309
2008-11-12 09:23:40 51°15.457 2°54.584 -999 -999 -999 -999
2008-11-12 09:23:44 51°15.467 2°54.58 -999 3.592612 32.013689 2.586309
2008-11-12 09:23:49 51°15.479 2°54.575 -999 3.604426 32.128384 2.551485
2008-11-12 09:23:50 51°15.482 2°54.574 -999 -999 -999 -999
2008-11-12 09:23:54 51°15.492 2°54.57 -999 3.61085 32.189719 2.481837
2008-11-12 09:23:59 51°15.504 2°54.565 -999 3.617897 32.254894 2.377365
2008-11-12 09:24:00 51°15.507 2°54.564 -999 -999 -999 -999
2008-11-12 09:24:04 51°15.517 2°54.56 -999 3.624944 32.318515 2.342541
2008-11-12 09:24:09 51°15.529 2°54.555 -999 3.633545 32.396764 2.307717
2008-11-12 09:24:10 51°15.531 2°54.554 -999 -999 -999 -999
2008-11-12 09:24:14 51°15.541 2°54.55 -999 3.633545 32.396764 2.307717
2008-11-12 09:24:19 51°15.554 2°54.545 -999 3.649401 32.54617 2.133597
2008-11-12 09:24:20 51°15.556 2°54.544 -999 -999 -999 -999
2008-11-12 09:24:24 51°15.566 2°54.539 -999 3.659453 32.636463 2.098773
2008-11-12 09:24:29 51°15.579 2°54.534 -999 3.663184 32.663251 2.029124
2008-11-12 09:24:30 51°15.581 2°54.533 -999 -999 -999 -999
2008-11-12 09:24:34 51°15.591 2°54.529 -999 3.683187 32.851444 2.029124
2008-11-12 09:24:39 51°15.603 2°54.524 -999 3.687954 32.889262 1.959476
2008-11-12 09:24:40 51°15.606 2°54.523 -999 -999 -999 -999
2008-11-12 09:24:44 51°15.615 2°54.519 -999 3.687954 32.889262 1.959476
2008-11-12 09:24:49 51°15.628 2°54.514 -999 3.6921 32.920898 1.959476
2008-11-12 09:24:50 51°15.63 2°54.513 -999 -999 -999 -999
2008-11-12 09:24:54 51°15.64 2°54.509 -999 3.701117 33.002442 1.855004
2008-11-12 09:24:59 51°15.652 2°54.504 -999 3.711171 33.092679 1.82018
2008-11-12 09:25:00 51°15.655 2°54.503 -999 -999 -999 -999
2008-11-12 09:25:04 51°15.664 2°54.499 -999 3.722158 33.192966 1.750532
2008-11-12 09:25:09 51°15.677 2°54.494 -999 3.725993 33.221457 1.715708
2008-11-12 09:25:10 51°15.68 2°54.493 -999 -999 -999 -999
2008-11-12 09:25:14 51°15.69 2°54.489 -999 3.725993 33.221457 1.715708
2008-11-12 09:25:19 51°15.702 2°54.484 -999 3.729517 33.249249 1.715708
2008-11-12 09:25:20 51°15.702 2°54.484 -999 -999 -999 -999
2008-11-12 09:25:24 51°15.714 2°54.479 -999 3.736565 33.31121 1.64606
2008-11-12 09:25:29 51°15.727 2°54.474 -999 3.747242 33.40998 1.680884
2008-11-12 09:25:30 51°15.729 2°54.473 -999 -999 -999 -999
2008-11-12 09:25:34 51°15.739 2°54.47 -999 3.748693 33.417166 1.64606
2008-11-12 09:25:39 51°15.752 2°54.465 -999 3.749729 33.421839 1.611236
2008-11-12 09:25:40 51°15.755 2°54.463 -999 -999 -999 -999
2008-11-12 09:25:44 51°15.765 2°54.459 -999 3.749729 33.421839 1.611236
2008-11-12 09:25:49 51°15.778 2°54.455 -999 3.75315 33.448566 1.611236
2008-11-12 09:25:50 51°15.78 2°54.453 -999 -999 -999 -999
2008-11-12 09:25:54 51°15.79 2°54.45 -999 3.749936 33.410265 1.611236
2008-11-12 09:25:59 51°15.803 2°54.444 -999 3.755015 33.45424 1.576412
2008-11-12 09:26:00 51°15.803 2°54.444 -999 -999 -999 -999
2008-11-12 09:26:04 51°15.816 2°54.439 -999 3.766003 33.557643 1.576412
2008-11-12 09:26:09 51°15.828 2°54.434 -999 3.766522 33.557153 1.541588
2008-11-12 09:26:10 51°15.831 2°54.433 -999 -999 -999 -999
2008-11-12 09:26:14 51°15.841 2°54.429 -999 3.766522 33.557153 1.541588
2008-11-12 09:26:19 51°15.854 2°54.424 -999 3.768491 33.570258 1.506764
2008-11-12 09:26:20 51°15.854 2°54.424 -999 -999 -999 -999
2008-11-12 09:26:24 51°15.866 2°54.42 -999 3.76932 33.572852 1.506764
2008-11-12 09:26:29 51°15.879 2°54.416 -999 3.780516 33.67829 1.506764
2008-11-12 09:26:30 51°15.881 2°54.415 -999 -999 -999 -999
2008-11-12 09:26:34 51°15.891 2°54.412 -999 3.777821 33.645902 1.437116
2008-11-12 09:26:39 51°15.903 2°54.407 -999 3.784455 33.706882 1.506764
2008-11-12 09:26:40 51°15.906 2°54.406 -999 -999 -999 -999
2008-11-12 09:26:44 51°15.916 2°54.403 -999 3.784455 33.706882 1.506764
2008-11-12 09:26:49 51°15.928 2°54.398 -999 3.779479 33.651069 1.541588
2008-11-12 09:26:50 51°15.931 2°54.397 -999 -999 -999 -999
2008-11-12 09:26:54 51°15.94 2°54.393 -999 3.789949 33.748465 1.506764
2008-11-12 09:26:59 51°15.951 2°54.39 -999 3.792955 33.771821 1.47194
2008-11-12 09:27:00 51°15.951 2°54.39 -999 -999 -999 -999
2008-11-12 09:27:04 51°15.961 2°54.386 -999 3.792748 33.764106 1.47194
2008-11-12 09:27:09 51°15.971 2°54.383 -999 3.795236 33.783122 1.47194
2008-11-12 09:27:10 51°15.973 2°54.383 -999 -999 -999 -999
2008-11-12 09:27:14 51°15.98 2°54.38 -999 3.795236 33.783122 1.47194
2008-11-12 09:27:19 51°15.989 2°54.377 -999 3.798139 33.806247 1.506764
2008-11-12 09:27:20 51°15.989 2°54.377 -999 -999 -999 -999
2008-11-12 09:27:24 51°15.997 2°54.375 -999 3.802907 33.844634 1.506764
2008-11-12 09:27:29 51°16.006 2°54.372 -999 3.808816 33.894318 1.541588
2008-11-12 09:27:30 51°16.006 2°54.372 -999 -999 -999 -999
2008-11-12 09:27:34 51°16.014 2°54.371 -999 3.806639 33.862204 1.576412
2008-11-12 09:27:39 51°16.022 2°54.369 -999 3.809749 33.882503 1.541588
2008-11-12 09:27:40 51°16.022 2°54.369 -999 -999 -999 -999
2008-11-12 09:27:44 51°16.029 2°54.367 -999 3.809749 33.882503 1.541588
2008-11-12 09:27:49 51°16.036 2°54.366 -999 3.816902 33.940425 1.576412
2008-11-12 09:27:50 51°16.038 2°54.365 -999 -999 -999 -999
2008-11-12 09:27:54 51°16.044 2°54.363 -999 3.8225 33.985353 1.541588
2008-11-12 09:27:59 51°16.05 2°54.362 -999 3.813377 33.885264 1.541588
2008-11-12 09:28:00 51°16.052 2°54.362 -999 -999 -999 -999
2008-11-12 09:28:04 51°16.057 2°54.36 -999 3.82758 34.013762 1.576412
2008-11-12 09:28:09 51°16.064 2°54.358 -999 3.829861 34.027421 1.541588
2008-11-12 09:28:10 51°16.065 2°54.358 -999 -999 -999 -999
2008-11-12 09:28:14 51°16.071 2°54.356 -999 3.829861 34.027421 1.541588
2008-11-12 09:28:19 51°16.077 2°54.355 -999 3.83152 34.034105 1.611236
2008-11-12 09:28:20 51°16.079 2°54.354 -999 -999 -999 -999
2008-11-12 09:28:24 51°16.084 2°54.353 -999 3.833386 34.04365 1.541588
2008-11-12 09:28:29 51°16.09 2°54.352 -999 3.826232 33.962326 1.541588
2008-11-12 09:28:30 51°16.091 2°54.351 -999 -999 -999 -999
2008-11-12 09:28:34 51°16.096 2°54.35 -999 3.840124 34.090857 1.506764
2008-11-12 09:28:39 51°16.102 2°54.348 -999 3.842094 34.103038 1.506764
2008-11-12 09:28:40 51°16.103 2°54.348 -999 -999 -999 -999
2008-11-12 09:28:44 51°16.108 2°54.347 -999 3.842094 34.103038 1.506764
2008-11-12 09:28:49 51°16.114 2°54.345 -999 3.831104 33.987852 1.541588
2008-11-12 09:28:50 51°16.115 2°54.345 -999 -999 -999 -999
2008-11-12 09:28:54 51°16.12 2°54.343 -999 3.841783 34.086968 1.506764
2008-11-12 09:28:59 51°16.125 2°54.341 -999 3.844478 34.106321 1.437116
2008-11-12 09:29:00 51°16.127 2°54.341 -999 -999 -999 -999
2008-11-12 09:29:04 51°16.131 2°54.339 -999 3.847589 34.130582 1.437116
2008-11-12 09:29:09 51°16.136 2°54.337 -999 3.850906 34.158514 1.47194
2008-11-12 09:29:10 51°16.137 2°54.337 -999 -999 -999 -999
2008-11-12 09:29:14 51°16.142 2°54.335 -999 3.850906 34.158514 1.47194
2008-11-12 09:29:19 51°16.147 2°54.333 -999 3.840953 34.056061 1.402292
2008-11-12 09:29:20 51°16.147 2°54.333 -999 -999 -999 -999
2008-11-12 09:29:24 51°16.152 2°54.33 -999 3.844789 34.090732 1.402292
2008-11-12 09:29:29 51°16.157 2°54.328 -999 3.852254 34.160462 1.402292
2008-11-12 09:29:30 51°16.158 2°54.328 -999 -999 -999 -999
2008-11-12 09:29:34 51°16.161 2°54.326 -999 3.854328 34.176897 1.402292
2008-11-12 09:29:39 51°16.166 2°54.323 -999 3.854742 34.176119 1.402292
2008-11-12 09:29:40 51°16.166 2°54.323 -999 -999 -999 -999
2008-11-12 09:29:44 51°16.17 2°54.32 -999 3.854742 34.176119 1.402292
2008-11-12 09:29:49 51°16.175 2°54.317 -999 3.855261 34.176366 1.367467
2008-11-12 09:29:50 51°16.176 2°54.317 -999 -999 -999 -999
2008-11-12 09:29:54 51°16.179 2°54.314 -999 3.856505 34.185411 1.402292
2008-11-12 09:29:59 51°16.183 2°54.311 -999 3.851113 34.12808 1.437116
2008-11-12 09:30:00 51°16.183 2°54.311 -999 -999 -999 -999
2008-11-12 09:30:04 51°16.186 2°54.307 -999 3.858267 34.195514 1.402292
2008-11-12 09:30:09 51°16.19 2°54.304 -999 3.851113 34.121591 1.437116
2008-11-12 09:30:10 51°16.191 2°54.303 -999 -999 -999 -999
2008-11-12 09:30:14 51°16.194 2°54.3 -999 3.851113 34.121591 1.437116
2008-11-12 09:30:19 51°16.198 2°54.297 -999 3.861067 34.215857 1.367467
2008-11-12 09:30:20 51°16.199 2°54.296 -999 -999 -999 -999
2008-11-12 09:30:24 51°16.201 2°54.293 -999 3.856608 34.168564 1.437116
2008-11-12 09:30:29 51°16.205 2°54.29 -999 3.859511 34.19399 1.47194
2008-11-12 09:30:30 51°16.205 2°54.29 -999 -999 -999 -999
2008-11-12 09:30:34 51°16.208 2°54.287 -999 3.858785 34.184385 1.437116
2008-11-12 09:30:39 51°16.211 2°54.284 -999 3.860859 34.201616 1.437116
2008-11-12 09:30:40 51°16.211 2°54.284 -999 -999 -999 -999
2008-11-12 09:30:44 51°16.214 2°54.281 -999 3.860859 34.201616 1.437116
2008-11-12 09:30:49 51°16.216 2°54.279 -999 3.860548 34.195295 1.437116
2008-11-12 09:30:50 51°16.216 2°54.279 -999 -999 -999 -999
2008-11-12 09:30:54 51°16.219 2°54.277 -999 3.861792 34.205145 1.437116
2008-11-12 09:30:59 51°16.221 2°54.276 -999 3.860133 34.186327 1.506764
2008-11-12 09:31:00 51°16.221 2°54.276 -999 -999 -999 -999
2008-11-12 09:31:04 51°16.223 2°54.275 -999 3.863347 34.21644 1.437116
2008-11-12 09:31:09 51°16.225 2°54.274 -999 3.856504 34.145634 1.402292
2008-11-12 09:31:10 51°16.225 2°54.274 -999 -999 -999 -999
2008-11-12 09:31:14 51°16.227 2°54.274 -999 3.856504 34.145634 1.402292
2008-11-12 09:31:19 51°16.229 2°54.273 -999 3.858059 34.158553 1.437116
2008-11-12 09:31:20 51°16.229 2°54.273 -999 -999 -999 -999
2008-11-12 09:31:24 51°16.23 2°54.273 -999 3.863036 34.204434 1.402292
2008-11-12 09:31:29 51°16.232 2°54.273 -999 3.866147 34.232704 1.402292
2008-11-12 09:31:30 51°16.233 2°54.273 -999 -999 -999 -999
2008-11-12 09:31:34 51°16.234 2°54.273 -999 3.86117 34.181954 1.47194
2008-11-12 09:31:39 51°16.236 2°54.274 -999 3.85723 34.140639 1.437116
2008-11-12 09:31:40 51°16.236 2°54.274 -999 -999 -999 -999
2008-11-12 09:31:44 51°16.237 2°54.274 -999 3.85723 34.140639 1.437116
2008-11-12 09:31:49 51°16.239 2°54.276 -999 3.859718 34.163573 1.437116
2008-11-12 09:31:50 51°16.239 2°54.276 -999 -999 -999 -999
2008-11-12 09:31:54 51°16.24 2°54.276 -999 3.864799 34.212089 1.367467
2008-11-12 09:31:59 51°16.242 2°54.278 -999 3.861584 34.179557 1.437116
2008-11-12 09:32:00 51°16.242 2°54.278 -999 -999 -999 -999
2008-11-12 09:32:04 51°16.243 2°54.28 -999 3.850387 34.067466 1.437116
2008-11-12 09:32:09 51°16.244 2°54.282 -999 3.859718 34.157898 1.402292
2008-11-12 09:32:10 51°16.245 2°54.282 -999 -999 -999 -999
2008-11-12 09:32:14 51°16.246 2°54.283 -999 3.859718 34.157898 1.402292
2008-11-12 09:32:19 51°16.247 2°54.285 -999 3.863762 34.196175 1.402292
2008-11-12 09:32:20 51°16.247 2°54.285 -999 -999 -999 -999
2008-11-12 09:32:24 51°16.248 2°54.288 -999 3.865213 34.209687 1.402292
2008-11-12 09:32:29 51°16.25 2°54.29 -999 3.865421 34.21011 1.437116
2008-11-12 09:32:30 51°16.25 2°54.29 -999 -999 -999 -999
2008-11-12 09:32:34 51°16.251 2°54.292 -999 3.861584 34.171447 1.437116
2008-11-12 09:32:39 51°16.252 2°54.295 -999 3.865628 34.211344 1.402292
2008-11-12 09:32:40 51°16.252 2°54.295 -999 -999 -999 -999
2008-11-12 09:32:44 51°16.253 2°54.297 -999 3.865628 34.211344 1.402292
2008-11-12 09:32:49 51°16.254 2°54.3 -999 3.863865 34.193952 1.402292
2008-11-12 09:32:50 51°16.254 2°54.3 -999 -999 -999 -999
2008-11-12 09:32:54 51°16.255 2°54.303 -999 3.862932 34.183934 1.367467
2008-11-12 09:32:59 51°16.256 2°54.306 -999 3.8592 34.146301 1.367467
2008-11-12 09:33:00 51°16.256 2°54.306 -999 -999 -999 -999
2008-11-12 09:33:04 51°16.257 2°54.309 -999 3.859718 34.150605 1.367467
2008-11-12 09:33:09 51°16.258 2°54.312 -999 3.866146 34.212401 1.332643
2008-11-12 09:33:10 51°16.258 2°54.312 -999 -999 -999 -999
2008-11-12 09:33:14 51°16.259 2°54.315 -999 3.866146 34.212401 1.332643
2008-11-12 09:33:19 51°16.26 2°54.318 -999 3.865006 34.200337 1.332643
2008-11-12 09:33:20 51°16.26 2°54.318 -999 -999 -999 -999
2008-11-12 09:33:24 51°16.261 2°54.321 -999 3.862103 34.170887 1.367467
2008-11-12 09:33:29 51°16.262 2°54.324 -999 3.867183 34.220196 1.367467
2008-11-12 09:33:30 51°16.262 2°54.325 -999 -999 -999 -999
2008-11-12 09:33:34 51°16.263 2°54.328 -999 3.864487 34.1936 1.367467
2008-11-12 09:33:39 51°16.264 2°54.332 -999 3.864695 34.194835 1.332643
2008-11-12 09:33:40 51°16.264 2°54.332 -999 -999 -999 -999